createdAt,value
2023-01-31T00:00:20.037Z,8.88
2023-01-31T00:05:24.936Z,7.93
2023-01-31T00:10:28.976Z,8.10
2023-01-31T00:15:33.207Z,8.73
2023-01-31T00:20:37.288Z,8.43
2023-01-31T00:25:41.108Z,7.13
2023-01-31T00:30:45.125Z,8.70
2023-01-31T00:35:48.977Z,8.50
2023-01-31T00:40:55.035Z,8.38
2023-01-31T00:45:59.837Z,6.40
2023-01-31T00:51:04.296Z,9.35
2023-01-31T00:56:15.172Z,8.38
2023-01-31T01:01:23.482Z,8.23
2023-01-31T01:06:29.475Z,8.70
2023-01-31T01:11:35.664Z,9.85
2023-01-31T01:16:41.551Z,9.23
2023-01-31T01:21:46.554Z,8.38
2023-01-31T01:26:50.378Z,8.60
2023-01-31T01:31:54.370Z,9.63
2023-01-31T01:36:58.252Z,9.85
2023-01-31T01:42:02.141Z,8.50
2023-01-31T01:47:06.148Z,9.55
2023-01-31T01:52:13.103Z,9.13
2023-01-31T01:57:25.219Z,9.27
2023-01-31T02:02:29.939Z,7.95
2023-01-31T02:07:34.168Z,9.55
2023-01-31T02:12:38.004Z,8.82
2023-01-31T02:17:42.183Z,9.60
2023-01-31T02:23:27.128Z,8.98
2023-01-31T02:28:53.082Z,7.82
2023-01-31T02:34:05.214Z,9.50
2023-01-31T02:39:39.538Z,9.73
2023-01-31T04:47:57.407Z,8.32
2023-01-31T04:53:01.407Z,8.02
2023-01-31T04:58:06.796Z,8.10
2023-01-31T05:03:11.447Z,9.20
2023-01-31T05:08:15.245Z,8.70
2023-01-31T05:13:18.998Z,8.55
2023-01-31T05:18:22.986Z,8.85
2023-01-31T05:23:26.882Z,8.63
2023-01-31T05:28:31.191Z,9.18
2023-01-31T05:33:36.093Z,8.10
2023-01-31T05:38:40.000Z,9.43
2023-01-31T05:43:43.790Z,9.25
2023-01-31T05:48:47.657Z,9.82
2023-01-31T05:53:52.505Z,9.38
2023-01-31T05:58:56.507Z,9.73
2023-01-31T06:04:00.682Z,8.73
2023-01-31T06:09:04.876Z,8.85
2023-01-31T06:14:10.457Z,9.48
2023-01-31T06:19:14.635Z,8.68
2023-01-31T06:24:18.469Z,8.77
2023-01-31T06:29:22.373Z,8.13
2023-01-31T06:34:26.408Z,8.10
2023-01-31T06:39:30.585Z,9.20
2023-01-31T06:44:34.917Z,7.50
2023-01-31T06:49:38.908Z,6.88
2023-01-31T06:54:43.150Z,7.07
2023-01-31T06:59:47.083Z,6.70
2023-01-31T07:04:50.888Z,6.38
2023-01-31T07:09:54.984Z,7.70
2023-01-31T07:14:58.764Z,7.30
2023-01-31T07:20:02.648Z,7.10
2023-01-31T07:25:08.679Z,6.82
2023-01-31T07:30:13.060Z,6.97
2023-01-31T07:35:17.076Z,7.75
2023-01-31T07:40:21.099Z,7.32
2023-01-31T07:45:25.043Z,7.15
2023-01-31T07:50:29.754Z,7.00
2023-01-31T07:55:34.290Z,7.30
2023-01-31T08:00:56.900Z,8.88
2023-01-31T08:06:19.957Z,6.45
2023-01-31T08:11:23.883Z,7.10
2023-01-31T08:16:28.148Z,7.68
2023-01-31T08:21:31.914Z,7.13
2023-01-31T08:26:36.093Z,6.72
2023-01-31T08:31:42.987Z,8.00
2023-01-31T08:36:46.981Z,7.20
2023-01-31T08:41:50.904Z,6.78
2023-01-31T08:46:55.477Z,6.70
2023-01-31T08:51:59.304Z,6.00
2023-01-31T08:57:03.552Z,6.63
2023-01-31T09:02:08.438Z,6.75
2023-01-31T09:07:12.249Z,6.43
2023-01-31T09:12:16.127Z,6.72
2023-01-31T09:17:20.204Z,6.13
2023-01-31T09:22:24.261Z,7.72
2023-01-31T09:27:29.729Z,6.45
2023-01-31T09:32:33.621Z,7.82
2023-01-31T09:37:37.507Z,7.25
2023-01-31T09:42:45.920Z,6.75
2023-01-31T09:52:58.431Z,7.60
2023-01-31T09:58:07.585Z,8.02
2023-01-31T10:03:40.607Z,6.85
2023-01-31T10:08:59.488Z,8.50
2023-01-31T10:14:14.686Z,10.25
2023-01-31T10:19:27.984Z,8.07
2023-01-31T10:24:45.293Z,7.25
2023-01-31T10:29:56.040Z,7.85
2023-01-31T10:35:05.259Z,6.60
2023-01-31T10:40:23.979Z,8.35
2023-01-31T10:45:34.545Z,9.23
2023-01-31T10:50:59.601Z,8.07
2023-01-31T10:56:11.884Z,7.93
2023-01-31T11:01:16.069Z,8.25
2023-01-31T11:06:21.929Z,7.35
2023-01-31T11:11:29.330Z,8.38
2023-01-31T11:16:38.251Z,7.55
2023-01-31T11:21:42.787Z,7.00
2023-01-31T11:26:54.543Z,6.88
2023-01-31T11:32:00.413Z,6.68
2023-01-31T11:37:24.591Z,7.40
2023-01-31T11:42:29.241Z,6.50
2023-01-31T11:47:42.181Z,6.60
2023-01-31T11:52:46.709Z,7.22
2023-01-31T11:58:01.423Z,7.38
2023-01-31T12:03:09.873Z,6.73
2023-01-31T12:08:30.348Z,6.23
2023-01-31T12:13:51.116Z,7.90
2023-01-31T12:19:30.385Z,7.10
2023-01-31T12:25:05.147Z,12.83
2023-01-31T12:30:50.521Z,13.63
2023-01-31T12:36:17.368Z,6.27
2023-01-31T12:41:32.296Z,8.93
2023-01-31T12:47:10.655Z,8.27
2023-01-31T12:52:36.961Z,16.83
2023-01-31T12:58:04.780Z,13.97
2023-01-31T13:03:24.787Z,9.90
2023-01-31T13:08:34.287Z,10.00
2023-01-31T13:13:56.764Z,9.73
2023-01-31T13:19:15.429Z,9.43
2023-01-31T13:24:24.795Z,8.00
2023-01-31T13:30:00.333Z,8.83
2023-01-31T13:35:19.404Z,9.17
2023-01-31T13:40:30.077Z,11.10
2023-01-31T13:45:39.800Z,10.03
2023-01-31T13:50:49.228Z,15.40
2023-01-31T13:55:54.408Z,12.03
2023-01-31T14:01:24.108Z,8.73
2023-01-31T14:06:56.773Z,8.07
2023-01-31T14:12:23.560Z,8.93
2023-01-31T14:17:30.642Z,9.20
2023-01-31T14:27:48.528Z,17.33
2023-01-31T14:33:10.097Z,13.30
2023-01-31T14:38:32.290Z,9.33
2023-01-31T14:43:42.910Z,8.50
2023-01-31T14:49:06.036Z,9.77
2023-01-31T14:55:04.619Z,6.93
2023-01-31T15:00:14.757Z,5.30
2023-01-31T15:05:24.614Z,6.03
2023-01-31T15:10:56.432Z,5.60
2023-01-31T15:16:00.722Z,7.13
2023-01-31T15:21:08.658Z,7.77
2023-01-31T15:26:17.698Z,7.10
2023-01-31T15:31:45.319Z,8.07
2023-01-31T15:36:52.656Z,5.83
2023-01-31T15:41:56.606Z,7.60
2023-01-31T15:47:01.511Z,6.07
2023-01-31T15:52:15.983Z,7.43
2023-01-31T15:57:22.726Z,9.63
2023-01-31T16:02:34.093Z,7.82
2023-01-31T16:07:38.002Z,6.60
2023-01-31T16:12:47.277Z,7.40
2023-01-31T16:17:51.829Z,6.90
2023-01-31T16:22:58.799Z,7.40
2023-01-31T16:33:24.769Z,6.73
2023-01-31T16:38:28.951Z,7.23
2023-01-31T16:43:34.893Z,7.47
2023-01-31T16:48:42.624Z,6.93
2023-01-31T16:53:46.743Z,7.60
2023-01-31T16:58:56.656Z,7.73
2023-01-31T17:04:12.598Z,6.17
2023-01-31T17:09:22.535Z,8.93
2023-01-31T17:14:26.541Z,8.20
2023-01-31T17:19:33.171Z,7.23
2023-01-31T17:24:37.075Z,7.13
2023-01-31T17:29:40.902Z,6.33
2023-01-31T17:34:49.942Z,7.80
2023-01-31T17:39:53.857Z,8.17
2023-01-31T17:44:57.840Z,7.57
2023-01-31T17:50:01.714Z,6.93
2023-01-31T17:55:07.778Z,8.17
2023-01-31T18:00:13.862Z,7.90
2023-01-31T18:05:24.537Z,7.40
2023-01-31T18:10:34.136Z,6.63
2023-01-31T18:15:40.907Z,6.90
2023-01-31T18:20:49.220Z,6.82
2023-01-31T18:25:53.013Z,8.23
2023-01-31T18:31:06.029Z,6.40
2023-01-31T18:36:17.116Z,6.30
2023-01-31T18:41:22.571Z,7.97
2023-01-31T18:46:28.264Z,7.63
2023-01-31T18:51:32.130Z,4.95
2023-01-31T18:56:36.074Z,7.93
2023-01-31T19:01:43.593Z,8.10
2023-01-31T19:06:53.419Z,7.40
2023-01-31T19:11:57.299Z,7.03
2023-01-31T19:17:01.032Z,6.93
2023-01-31T19:22:05.066Z,7.13
2023-01-31T19:27:08.901Z,8.87
2023-01-31T19:32:12.654Z,5.20
2023-01-31T19:37:16.552Z,5.57
2023-01-31T19:42:22.283Z,8.30
2023-01-31T19:47:26.147Z,8.30
2023-01-31T19:52:34.061Z,6.20
2023-01-31T19:57:38.786Z,8.00
2023-01-31T20:02:43.680Z,7.00
2023-01-31T20:07:47.624Z,9.63
2023-01-31T20:12:51.557Z,7.27
2023-01-31T20:17:55.603Z,7.13
2023-01-31T20:22:59.456Z,7.67
2023-01-31T20:28:03.161Z,6.03
2023-01-31T20:33:07.414Z,5.77
2023-01-31T20:38:13.052Z,6.63
2023-01-31T20:43:17.199Z,4.90
2023-01-31T20:48:21.159Z,6.17
2023-01-31T20:53:30.042Z,5.27
2023-01-31T20:58:39.056Z,5.63
2023-01-31T21:03:42.996Z,6.30
2023-01-31T21:08:48.594Z,6.67
2023-01-31T21:18:57.279Z,5.13
2023-01-31T21:24:01.172Z,5.60
2023-01-31T21:29:05.214Z,13.63
2023-01-31T21:34:09.332Z,12.40
2023-01-31T21:39:13.768Z,7.93
2023-01-31T21:44:17.984Z,3.97
2023-01-31T21:49:21.756Z,5.10
2023-01-31T21:54:25.874Z,4.70
2023-01-31T21:59:29.910Z,4.33
2023-01-31T22:04:33.800Z,5.47
2023-01-31T22:09:37.690Z,4.93
2023-01-31T22:14:41.421Z,4.43
2023-01-31T22:19:45.421Z,4.97
2023-01-31T22:24:49.327Z,5.00
2023-01-31T22:29:54.156Z,4.03
2023-01-31T22:34:59.465Z,4.97
2023-01-31T22:40:03.370Z,4.57
2023-01-31T22:45:08.889Z,3.93
2023-01-31T22:50:12.588Z,6.63
2023-01-31T22:55:16.621Z,4.80
2023-01-31T23:00:20.848Z,3.83
2023-01-31T23:05:25.824Z,6.47
2023-01-31T23:10:29.785Z,5.70
2023-01-31T23:15:34.622Z,5.03
2023-01-31T23:20:39.232Z,7.33
2023-01-31T23:25:42.968Z,6.57
2023-01-31T23:30:47.410Z,5.33
2023-01-31T23:35:52.142Z,5.03
2023-01-31T23:40:56.211Z,7.07
2023-01-31T23:46:01.137Z,6.30
2023-01-31T23:51:05.597Z,7.20
2023-01-31T23:56:09.560Z,4.70
